Nearby METAR Reports

 

KSJC - San Jose, California, USA
Distance from station: NE 9mi, 14km
Updated: Thu, 25-May-2017 6:53am PDT
Mostly cloudy
Mostly cloudy
 Wind from SE
Wind: SE 6 mph , 9 km/h
Temperature: 57°F , 14°C
Dew Point: 48°F , 9°C
Humidity: 72%
Barometer: 29.76 inHg , 1007.8 hPa
Clouds: Mostly cloudy
Visibility: 10 miles , 16 km
Cloud details: Few Clouds 1300 ft
Mostly cloudy 2400 ft
2017/05/25 13:53 KSJC 251353Z 14005KT 10SM FEW013 BKN024 14/09 A2976 RMK AO2 SLP078 T01390094
KNUQ - Moffett Nas/Mtn, California, USA
Distance from station: N 9mi, 14km
Updated: Thu, 25-May-2017 6:56am PDT
Clear
Clear
 Wind from SSE
Wind: SSE 9 mph , 15 km/h
Temperature: 57°F , 14°C
Dew Point: 48°F , 9°C
Humidity: 72%
Barometer: 29.76 inHg , 1007.8 hPa
Clouds: Clear
Visibility: 10 miles , 16 km
2017/05/25 13:56 KNUQ 251356Z 15008KT 10SM CLR 14/09 A2976 RMK AO2 SLP080 T01390094
 
KPAO - Palo Alto, California, USA
Distance from station: NNW 14mi, 23km
Updated: Thu, 25-May-2017 6:47am PDT
Mostly cloudy
Mostly cloudy
 Wind from SE
Wind: SE 6 mph , 9 km/h
Temperature: 55°F , 13°C
Dew Point: 52°F , 11°C
Humidity: 88%
Barometer: 29.76 inHg , 1007.8 hPa
Clouds: Mostly cloudy
Visibility: 10 miles , 16 km
Cloud details: Mostly cloudy 2400 ft
2017/05/25 13:47 KPAO 251347Z 13005KT 10SM BKN024 13/11 A2976
KRHV - San Jose/Reid, California, USA
Distance from station: ENE 12mi, 19km
Updated: Wed, 24-May-2017 9:47pm PDT
NOT Current

 
Visibility: 31 miles
2017/05/25 04:47 KRHV 250447Z 19010 10SM SCT090 15/10 A2976 RMK EST WIND
 
KOAK - Oakland, California, USA
Distance from station: NNW 31mi, 50km
Updated: Thu, 25-May-2017 6:53am PDT
Overcast
Overcast
 Wind from SSW
Wind: SSW 17 mph , 28 km/h, Gust: 28 mph , 44 km/h
Temperature: 57°F , 14°C
Dew Point: 52°F , 11°C
Humidity: 82%
Barometer: 29.76 inHg , 1007.8 hPa
Clouds: Overcast
Visibility: 10 miles , 16 km
Cloud details: Few Clouds 1600 ft
Overcast 2600 ft
2017/05/25 13:53 KOAK 251353Z 21015G24KT 10SM FEW016 OVC026 14/11 A2976 RMK AO2 SLP077 T01440111
KSQL - San Carlos Airpo, California, USA
Distance from station: NW 21mi, 34km
Updated: Thu, 25-May-2017 6:50am PDT
Overcast
Overcast
 Wind from S
Wind: S 8 mph , 13 km/h
Temperature: 57°F , 14°C
Dew Point: 48°F , 9°C
Humidity: 72%
Barometer: 29.76 inHg , 1007.8 hPa
Clouds: Overcast
Visibility: 10 miles , 16 km
Cloud details: Overcast 2400 ft
2017/05/25 13:50 KSQL 251350Z AUTO 19007KT 10SM OVC024 14/09 A2976 RMK AO2
 
KSFO - San Francisco, California, USA
Distance from station: NW 30mi, 49km
Updated: Thu, 25-May-2017 6:56am PDT
Overcast
Overcast
 Wind from S
Wind: S 7 mph , 11 km/h
Temperature: 55°F , 13°C
Dew Point: 48°F , 9°C
Humidity: 77%
Barometer: 29.76 inHg , 1007.8 hPa
Clouds: Overcast
Visibility: 10 miles , 16 km
Cloud details: Few Clouds 1400 ft
Overcast 1700 ft
2017/05/25 13:56 KSFO 251356Z 17006KT 10SM FEW014 OVC017 13/09 A2976 RMK AO2 SLP076 T01330089
KE16 - San Martin, California, USA
Distance from station: ESE 27mi, 43km
Updated: Thu, 11-May-2017 4:00pm PDT
NOT Current
Clear
Clear
 Wind from SSW
Wind: SSW 10 mph , 17 km/h, Gust: 16 mph , 26 km/h
Temperature: 68°F , 20°C
Dew Point: 50°F , 10°C
Humidity: 53%
Barometer: 30.11 inHg , 1019.6 hPa
Clouds: Clear
Visibility: 10 miles , 16 km
2017/05/11 23:00 KE16 112300Z AUTO 21009G14KT 10SM CLR 20/10 A3011 RMK AO2
 
KWVI - Watsonville, California, USA
Distance from station: SSE 27mi, 44km
Updated: Thu, 25-May-2017 6:53am PDT
Overcast
Overcast
 Wind from SW
Wind: SW 5 mph , 7 km/h
Temperature: 54°F , 12°C
Dew Point: 54°F , 12°C
Humidity: 100%
Barometer: 29.80 inHg , 1009.1 hPa
Clouds: Overcast
Visibility: 9 miles , 14 km
Cloud details: Overcast 1800 ft
2017/05/25 13:53 KWVI 251353Z AUTO 23004KT 9SM OVC018 12/12 A2980 RMK AO2 SLP091 T01220117
KHAF - Half Moon Bay, California, USA
Distance from station: WNW 31mi, 50km
Updated: Thu, 25-May-2017 7:15am PDT
Mist, Overcast
Mist, Overcast
 Wind from S
Wind: S 15 mph , 24 km/h, Gust: 22 mph , 35 km/h
Temperature: 54°F , 12°C
Dew Point: 50°F , 10°C
Humidity: 88%
Barometer: 29.78 inHg , 1008.5 hPa
Summary: Mist
Clouds: Overcast
Visibility: 3 miles , 5 km
Cloud details: Overcast 2100 ft
2017/05/25 14:15 KHAF 251415Z AUTO 17013G19KT 3SM BR OVC021 12/10 A2978 RMK AO2
 
KHWD - Hayward, California, USA
Distance from station: N 28mi, 44km
Updated: Thu, 25-May-2017 6:54am PDT
Overcast
Overcast
 Wind from S
Wind: S 6 mph , 9 km/h
Temperature: 59°F , 15°C
Dew Point: 46°F , 8°C
Humidity: 63%
Barometer: 29.75 inHg , 1007.5 hPa
Clouds: Overcast
Visibility: 10 miles , 16 km
Cloud details: Overcast 2400 ft
2017/05/25 13:54 KHWD 251354Z AUTO 17005KT 10SM OVC024 15/08 A2975 RMK AO2 SLP084 T01500078
KLVK - Livermore, California, USA
Distance from station: NNE 31mi, 51km
Updated: Thu, 25-May-2017 6:53am PDT
Mostly cloudy
Mostly cloudy
 Wind from WSW
Wind: WSW 14 mph , 22 km/h
Temperature: 57°F , 14°C
Dew Point: 48°F , 9°C
Humidity: 72%
Barometer: 29.74 inHg , 1007.1 hPa
Clouds: Mostly cloudy
Visibility: 10 miles , 16 km
Cloud details: Mostly cloudy 2300 ft
2017/05/25 13:53 KLVK 251353Z AUTO 24012KT 10SM BKN023 14/09 A2974 RMK AO2 SLP068 T01390089 TSNO